Time;durP1;ratioP1;P1;durP2;ratioP2;P2;SDS_P1;SDS_P2;PMS_P1;PMS_P2;Temp;Humidity;BMP_temperature;BMP_pressure;BME280_temperature;BME280_humidity;BME280_pressure;Samples;Min_cycle;Max_cycle;Signal;HPM_P1;HPM_P2
2023/03/27 00:00:07;;;;;;;2.30;1.77;;;6.40;96.00;;;;;;5033648;28;20842;-68
2023/03/27 00:02:34;;;;;;;1.87;1.77;;;6.40;95.90;;;;;;5033508;28;20466;-69
2023/03/27 00:05:01;;;;;;;1.80;1.70;;;6.40;96.10;;;;;;5033111;28;20449;-68
2023/03/27 00:07:29;;;;;;;2.27;2.10;;;6.40;96.30;;;;;;5033544;28;20551;-67
2023/03/27 00:09:56;;;;;;;1.80;1.70;;;6.40;96.10;;;;;;5033151;28;20450;-69
2023/03/27 00:12:23;;;;;;;3.77;2.00;;;6.40;96.10;;;;;;5033225;28;20449;-69
2023/03/27 00:14:51;;;;;;;3.03;1.80;;;6.40;96.30;;;;;;5032485;28;20508;-69
2023/03/27 00:17:18;;;;;;;2.60;2.40;;;6.40;96.00;;;;;;5033374;28;20485;-69
2023/03/27 00:19:45;;;;;;;2.03;1.93;;;6.40;96.00;;;;;;5032928;28;21033;-69
2023/03/27 00:22:11;;;;;;;2.00;1.87;;;6.30;95.80;;;;;;5033315;28;20447;-69
2023/03/27 00:24:39;;;;;;;2.57;2.40;;;6.30;95.70;;;;;;5032963;28;20473;-69
2023/03/27 00:27:07;;;;;;;1.90;1.80;;;6.30;95.70;;;;;;5032683;28;20453;-70
2023/03/27 00:29:34;;;;;;;2.20;2.10;;;6.30;95.60;;;;;;5033105;28;20452;-68
2023/03/27 00:32:01;;;;;;;2.27;2.17;;;6.20;95.40;;;;;;5032780;28;20461;-68
2023/03/27 00:34:29;;;;;;;1.60;1.50;;;6.20;95.10;;;;;;5032440;28;20858;-69
2023/03/27 00:36:56;;;;;;;2.00;1.90;;;6.20;95.00;;;;;;5032526;28;20461;-71
2023/03/27 00:39:23;;;;;;;2.20;1.90;;;6.20;95.30;;;;;;5032714;28;20977;-70
2023/03/27 00:41:51;;;;;;;2.63;2.43;;;6.20;95.40;;;;;;5032531;28;20997;-70
2023/03/27 00:44:24;;;;;;;2.33;2.10;;;6.20;95.30;;;;;;5033570;28;20441;-71
2023/03/27 00:46:53;;;;;;;1.50;1.40;;;6.20;95.30;;;;;;5034220;28;20457;-69
2023/03/27 00:49:22;;;;;;;1.40;1.30;;;6.20;94.20;;;;;;5034460;28;21002;-71
2023/03/27 00:51:51;;;;;;;1.40;1.30;;;6.10;94.10;;;;;;5035716;28;20442;-69
2023/03/27 00:54:25;;;;;;;0.90;0.70;;;6.10;94.00;;;;;;5032574;28;20484;-69
2023/03/27 00:56:54;;;;;;;4.83;0.60;;;6.00;93.10;;;;;;5032328;28;20468;-69
2023/03/27 00:59:27;;;;;;;0.80;0.77;;;5.90;92.30;;;;;;5032428;28;20495;-69
2023/03/27 01:01:54;;;;;;;1.60;0.70;;;5.80;91.90;;;;;;5032593;28;20451;-69
2023/03/27 01:04:22;;;;;;;0.73;0.50;;;5.80;91.80;;;;;;5031938;28;20514;-69
2023/03/27 01:06:52;;;;;;;0.60;0.60;;;5.70;91.80;;;;;;5032727;28;20803;-69
2023/03/27 01:09:19;;;;;;;1.00;0.67;;;5.70;92.20;;;;;;5032797;28;20476;-68
2023/03/27 01:11:59;;;;;;;0.70;0.70;;;5.70;91.50;;;;;;5033052;28;20460;-70
2023/03/27 01:14:33;;;;;;;1.10;0.83;;;5.70;91.90;;;;;;5032848;28;20856;-70
2023/03/27 01:17:13;;;;;;;1.20;1.07;;;5.70;92.10;;;;;;5031773;28;20455;-69
2023/03/27 01:20:08;;;;;;;1.27;1.10;;;5.60;92.20;;;;;;5032306;28;20844;-69
2023/03/27 01:23:08;;;;;;;1.07;0.90;;;5.60;92.20;;;;;;5031366;28;20821;-69
2023/03/27 01:25:56;;;;;;;1.50;1.07;;;5.70;91.70;;;;;;5031230;28;21061;-68
2023/03/27 01:28:36;;;;;;;0.90;0.70;;;5.60;91.80;;;;;;5031177;28;20476;-69
2023/03/27 01:31:15;;;;;;;0.93;0.83;;;5.60;90.40;;;;;;5031656;28;20440;-69
2023/03/27 01:34:24;;;;;;;1.60;0.93;;;5.60;90.50;;;;;;5030790;28;20549;-69
2023/03/27 01:37:06;;;;;;;1.23;1.13;;;5.60;90.10;;;;;;4969861;28;20485;-70
2023/03/27 01:39:44;;;;;;;1.37;1.00;;;5.60;88.10;;;;;;5028543;28;21070;-70
2023/03/27 01:42:18;;;;;;;1.33;1.23;;;5.50;88.60;;;;;;5031325;28;20502;-71
2023/03/27 01:44:51;;;;;;;2.30;1.33;;;5.40;89.80;;;;;;5031115;28;20444;-70
2023/03/27 01:47:26;;;;;;;1.30;1.20;;;5.30;90.10;;;;;;5031386;28;20447;-69
2023/03/27 01:49:56;;;;;;;2.80;1.30;;;5.20;91.10;;;;;;5031318;28;20961;-69
2023/03/27 01:52:28;;;;;;;2.43;1.40;;;5.10;91.00;;;;;;5030886;28;20444;-69
2023/03/27 01:55:03;;;;;;;1.67;1.40;;;5.10;91.20;;;;;;5031349;28;20480;-69
2023/03/27 01:57:36;;;;;;;1.50;1.40;;;5.10;91.70;;;;;;5031072;28;21155;-69
2023/03/27 02:00:11;;;;;;;1.70;1.27;;;5.00;92.00;;;;;;5031275;28;20494;-70
2023/03/27 02:02:41;;;;;;;1.40;1.30;;;5.00;91.80;;;;;;5031040;28;21197;-69
2023/03/27 02:05:13;;;;;;;1.87;1.30;;;5.00;92.00;;;;;;5030921;28;20459;-68
2023/03/27 02:07:44;;;;;;;3.00;1.40;;;4.90;92.20;;;;;;5030885;28;20520;-70
2023/03/27 02:10:16;;;;;;;3.50;1.60;;;4.90;92.10;;;;;;5030966;28;20459;-69
2023/03/27 02:12:46;;;;;;;2.37;1.50;;;4.80;91.70;;;;;;5030659;28;20550;-70
2023/03/27 02:15:16;;;;;;;2.10;1.90;;;4.70;92.10;;;;;;5030527;28;20493;-67
2023/03/27 02:17:47;;;;;;;1.83;1.70;;;4.70;92.20;;;;;;5030852;28;20463;-68
2023/03/27 02:20:16;;;;;;;2.87;1.83;;;4.70;92.70;;;;;;5030851;28;20456;-70
2023/03/27 02:22:44;;;;;;;2.50;2.30;;;4.70;93.00;;;;;;5030417;28;20475;-69
2023/03/27 02:25:28;;;;;;;2.13;1.93;;;4.70;93.40;;;;;;5031020;28;20486;-69
2023/03/27 02:28:10;;;;;;;3.80;2.37;;;4.70;93.40;;;;;;5030501;28;20467;-70
2023/03/27 02:30:41;;;;;;;2.43;2.23;;;4.70;93.20;;;;;;5030857;28;20464;-69
2023/03/27 02:33:17;;;;;;;6.17;2.70;;;4.80;93.70;;;;;;5030795;28;20507;-70
2023/03/27 02:35:54;;;;;;;7.00;4.50;;;4.80;94.00;;;;;;5031024;28;20435;-70
2023/03/27 02:38:28;;;;;;;7.90;5.30;;;4.80;93.80;;;;;;5030810;28;20471;-68
2023/03/27 02:41:06;;;;;;;6.50;5.30;;;4.70;93.20;;;;;;5030664;28;20456;-70
2023/03/27 02:43:37;;;;;;;10.23;5.40;;;4.60;93.20;;;;;;5030721;28;20448;-70
2023/03/27 02:46:09;;;;;;;8.43;6.03;;;4.50;93.20;;;;;;5030568;28;20451;-70
2023/03/27 02:48:40;;;;;;;8.80;6.03;;;4.40;93.20;;;;;;5031018;28;20472;-68
2023/03/27 02:51:12;;;;;;;10.60;6.50;;;4.30;93.40;;;;;;5030749;28;20203;-70
2023/03/27 02:53:43;;;;;;;15.48;6.68;;;4.30;93.70;;;;;;5030712;28;21081;-70
2023/03/27 02:56:13;;;;;;;11.00;6.15;;;4.20;93.30;;;;;;5030530;28;20214;-70
2023/03/27 02:58:46;;;;;;;9.23;5.72;;;4.20;92.90;;;;;;5030841;28;20290;-69
2023/03/27 03:01:17;;;;;;;9.73;5.80;;;4.10;92.80;;;;;;5030631;28;20229;-69
2023/03/27 03:03:52;;;;;;;8.50;6.13;;;4.10;92.90;;;;;;5030654;28;20205;-69
2023/03/27 03:06:20;;;;;;;14.48;5.68;;;4.00;92.80;;;;;;5031155;28;20208;-69
2023/03/27 03:08:48;;;;;;;9.70;6.05;;;3.90;92.70;;;;;;5030842;28;20231;-68
2023/03/27 03:11:16;;;;;;;10.95;6.28;;;3.80;92.80;;;;;;5031083;28;20207;-71
2023/03/27 03:13:43;;;;;;;11.30;6.05;;;3.80;93.00;;;;;;5029841;28;20209;-69
2023/03/27 03:16:10;;;;;;;15.05;6.80;;;3.70;93.00;;;;;;5030432;28;20203;-69
2023/03/27 03:18:37;;;;;;;21.65;7.15;;;3.70;93.30;;;;;;5031918;28;20235;-69
2023/03/27 03:21:04;;;;;;;9.73;5.68;;;3.70;93.40;;;;;;5034409;28;20205;-69
2023/03/27 03:23:31;;;;;;;10.88;5.55;;;3.70;92.80;;;;;;5033893;28;20210;-69
2023/03/27 03:25:58;;;;;;;11.35;6.07;;;3.70;92.80;;;;;;5034325;28;20198;-69
2023/03/27 03:28:26;;;;;;;9.40;5.97;;;3.70;92.90;;;;;;5033821;28;20225;-70
2023/03/27 03:30:53;;;;;;;10.82;6.10;;;3.70;92.80;;;;;;5034071;28;20207;-69
2023/03/27 03:33:20;;;;;;;15.48;6.78;;;3.70;92.50;;;;;;5034015;28;20200;-70
2023/03/27 03:35:48;;;;;;;14.05;5.63;;;3.60;93.00;;;;;;5034080;28;20227;-68
2023/03/27 03:38:23;;;;;;;12.73;6.80;;;3.60;92.70;;;;;;5033827;28;20792;-70
2023/03/27 03:40:51;;;;;;;12.77;6.68;;;3.60;92.90;;;;;;5033589;28;20211;-69
2023/03/27 03:43:18;;;;;;;11.30;7.05;;;3.50;93.40;;;;;;5033589;28;20207;-70
2023/03/27 03:45:46;;;;;;;15.05;7.25;;;3.50;93.70;;;;;;5033402;28;20200;-70
2023/03/27 03:48:13;;;;;;;12.10;6.47;;;3.50;93.70;;;;;;5033673;28;20236;-70
2023/03/27 03:50:39;;;;;;;13.57;5.68;;;3.50;93.20;;;;;;5033553;28;20203;-70
2023/03/27 03:53:06;;;;;;;15.10;6.78;;;3.60;92.20;;;;;;5033060;28;20264;-68
2023/03/27 03:55:33;;;;;;;10.18;5.50;;;3.60;92.30;;;;;;5032880;28;20219;-69
2023/03/27 03:58:00;;;;;;;14.98;6.82;;;3.50;92.60;;;;;;5033069;28;20231;-70
2023/03/27 04:00:27;;;;;;;12.85;7.32;;;3.50;92.50;;;;;;5033749;28;20207;-69
2023/03/27 04:02:55;;;;;;;11.65;5.47;;;3.50;92.70;;;;;;5034921;28;20203;-69
2023/03/27 04:05:23;;;;;;;15.73;6.43;;;3.50;92.30;;;;;;5034434;28;20226;-70
2023/03/27 04:07:50;;;;;;;10.18;4.88;;;3.50;92.20;;;;;;5032866;28;20287;-70
2023/03/27 04:10:17;;;;;;;11.32;5.05;;;3.50;91.50;;;;;;5032911;28;20204;-69
2023/03/27 04:12:47;;;;;;;15.70;7.45;;;3.30;91.20;;;;;;5033502;28;20203;-69
2023/03/27 04:15:14;;;;;;;10.10;4.63;;;3.20;91.90;;;;;;5033124;28;20232;-70
2023/03/27 04:17:41;;;;;;;14.68;6.28;;;3.10;91.70;;;;;;5032863;28;20245;-69
2023/03/27 04:20:11;;;;;;;13.48;6.13;;;3.10;91.80;;;;;;5033308;28;20199;-69
2023/03/27 04:22:38;;;;;;;16.25;6.95;;;3.10;92.00;;;;;;5032529;28;20692;-70
2023/03/27 04:25:06;;;;;;;9.15;5.95;;;3.20;92.50;;;;;;5033697;28;20203;-69
2023/03/27 04:27:34;;;;;;;12.77;5.18;;;3.30;93.00;;;;;;5033108;28;20271;-69
2023/03/27 04:30:01;;;;;;;9.82;3.95;;;3.20;92.30;;;;;;5031590;28;20204;-69
2023/03/27 04:32:28;;;;;;;9.30;4.20;;;3.20;91.20;;;;;;5032528;28;20198;-69
2023/03/27 04:34:55;;;;;;;9.35;3.92;;;3.10;91.40;;;;;;5033152;28;20224;-69
2023/03/27 04:37:23;;;;;;;12.43;4.38;;;3.00;91.10;;;;;;5032695;28;20229;-69
2023/03/27 04:39:49;;;;;;;7.93;4.55;;;2.90;91.00;;;;;;5033021;28;20203;-70
2023/03/27 04:42:16;;;;;;;11.43;3.90;;;2.80;91.10;;;;;;5032929;28;20222;-69
2023/03/27 04:44:45;;;;;;;12.32;3.83;;;2.80;91.00;;;;;;5032382;28;20202;-68
2023/03/27 04:47:12;;;;;;;11.32;3.13;;;2.80;90.50;;;;;;5033693;28;20713;-69
2023/03/27 04:49:42;;;;;;;8.55;3.50;;;2.70;90.30;;;;;;5033279;28;20204;-71
2023/03/27 04:52:12;;;;;;;11.57;4.28;;;2.60;90.60;;;;;;5034066;28;20202;-70
2023/03/27 04:54:41;;;;;;;5.65;2.83;;;2.70;90.80;;;;;;5032817;28;20218;-68
2023/03/27 04:57:08;;;;;;;10.93;3.45;;;2.60;90.30;;;;;;5032526;28;20224;-70
2023/03/27 04:59:36;;;;;;;7.28;2.97;;;2.60;90.50;;;;;;5032294;28;20212;-69
2023/03/27 05:02:05;;;;;;;6.65;2.90;;;2.60;89.70;;;;;;5032264;28;20202;-68
2023/03/27 05:04:32;;;;;;;10.98;2.83;;;2.60;89.20;;;;;;5032091;28;20203;-68
2023/03/27 05:07:01;;;;;;;6.38;2.85;;;2.60;88.30;;;;;;5033201;28;20214;-69
2023/03/27 05:09:27;;;;;;;4.20;3.08;;;2.50;88.60;;;;;;5032495;28;20228;-68
2023/03/27 05:11:55;;;;;;;10.07;3.97;;;2.50;89.20;;;;;;5032027;28;20203;-68
2023/03/27 05:14:23;;;;;;;7.60;2.78;;;2.50;89.20;;;;;;5031644;28;20208;-69
2023/03/27 05:16:51;;;;;;;6.55;3.35;;;2.50;87.60;;;;;;5031700;28;20201;-69
2023/03/27 05:19:19;;;;;;;8.52;3.10;;;2.40;87.20;;;;;;5031747;28;20642;-68
2023/03/27 05:21:47;;;;;;;7.95;3.15;;;2.40;89.20;;;;;;5031852;28;20205;-68
2023/03/27 05:24:14;;;;;;;9.50;3.10;;;2.50;88.80;;;;;;5022256;28;20564;-69
2023/03/27 05:26:42;;;;;;;11.68;2.30;;;2.50;88.60;;;;;;5021051;28;20198;-69
2023/03/27 05:29:10;;;;;;;7.55;2.35;;;2.50;87.40;;;;;;5022249;28;20242;-68
2023/03/27 05:31:37;;;;;;;7.25;2.65;;;2.50;86.60;;;;;;5018243;28;20573;-68
2023/03/27 05:34:04;;;;;;;9.63;2.58;;;2.50;86.50;;;;;;5011475;28;20210;-68
2023/03/27 05:36:31;;;;;;;8.98;2.55;;;2.50;87.90;;;;;;5011566;28;20237;-68
2023/03/27 05:38:58;;;;;;;6.38;2.45;;;2.40;84.40;;;;;;5011433;28;20219;-70
2023/03/27 05:41:25;;;;;;;10.95;3.08;;;2.40;84.70;;;;;;5011781;28;20211;-70
2023/03/27 05:43:52;;;;;;;8.13;2.55;;;2.40;85.60;;;;;;5012680;28;20672;-71
2023/03/27 05:46:21;;;;;;;14.00;4.55;;;2.40;84.40;;;;;;5014103;28;20210;-68
2023/03/27 05:48:48;;;;;;;5.70;2.40;;;2.40;86.00;;;;;;5013916;28;20297;-70
2023/03/27 05:51:14;;;;;;;8.07;2.55;;;2.40;83.80;;;;;;5011478;28;20290;-70
2023/03/27 05:53:41;;;;;;;6.50;2.10;;;2.40;83.20;;;;;;5011434;28;20218;-69
2023/03/27 05:56:09;;;;;;;10.70;3.30;;;2.40;82.40;;;;;;5011325;28;20574;-69
2023/03/27 05:58:37;;;;;;;10.07;2.40;;;2.50;82.90;;;;;;5010969;28;20248;-67
2023/03/27 06:01:04;;;;;;;3.80;1.88;;;2.50;82.10;;;;;;5009196;28;20254;-69
2023/03/27 06:03:34;;;;;;;7.47;2.03;;;2.50;82.30;;;;;;5041617;28;20292;-70
2023/03/27 06:06:05;;;;;;;5.07;1.90;;;2.50;81.50;;;;;;5039127;28;20198;-70
2023/03/27 06:08:32;;;;;;;7.75;2.03;;;2.60;82.20;;;;;;5038382;28;21037;-70
2023/03/27 06:10:59;;;;;;;11.05;2.85;;;2.50;79.90;;;;;;5029036;28;20210;-69
2023/03/27 06:13:26;;;;;;;7.60;2.60;;;2.50;80.20;;;;;;5027745;28;20677;-69
2023/03/27 06:15:54;;;;;;;5.82;2.22;;;2.50;79.10;;;;;;5040142;28;20220;-68
2023/03/27 06:18:21;;;;;;;6.38;2.33;;;2.50;81.50;;;;;;5039509;28;20635;-67
2023/03/27 06:20:50;;;;;;;5.22;1.95;;;2.60;80.00;;;;;;5040606;28;20206;-67
2023/03/27 06:23:17;;;;;;;6.90;2.40;;;2.60;79.80;;;;;;5039975;28;20227;-69
2023/03/27 06:25:46;;;;;;;9.65;2.67;;;2.60;80.10;;;;;;5042490;28;20214;-67
2023/03/27 06:28:13;;;;;;;4.15;2.65;;;2.60;80.60;;;;;;5041160;28;20216;-68
2023/03/27 06:30:41;;;;;;;8.45;2.20;;;2.60;78.50;;;;;;5038504;28;20381;-68
2023/03/27 06:33:08;;;;;;;8.60;2.67;;;2.60;79.30;;;;;;5037526;28;20204;-68
2023/03/27 06:35:35;;;;;;;7.55;2.38;;;2.60;77.90;;;;;;5039181;28;20217;-69
2023/03/27 06:38:03;;;;;;;7.35;2.13;;;2.60;78.60;;;;;;5040090;28;20826;-68
2023/03/27 06:40:33;;;;;;;5.78;2.53;;;2.70;78.00;;;;;;5040445;28;20211;-68
2023/03/27 06:43:02;;;;;;;8.00;2.67;;;2.70;76.10;;;;;;5039690;28;20251;-67
2023/03/27 06:45:31;;;;;;;5.47;1.70;;;2.70;77.40;;;;;;5038513;28;20206;-66
2023/03/27 06:47:59;;;;;;;7.50;3.17;;;2.70;77.50;;;;;;5039694;28;20310;-70
2023/03/27 06:50:27;;;;;;;5.22;2.10;;;2.80;78.90;;;;;;5039781;28;20764;-68
2023/03/27 06:52:55;;;;;;;3.90;1.77;;;2.80;77.60;;;;;;5038602;28;20727;-63
2023/03/27 06:55:25;;;;;;;4.95;3.53;;;2.90;74.70;;;;;;5039329;28;20589;-67
2023/03/27 06:57:54;;;;;;;5.90;2.05;;;2.80;75.70;;;;;;5040897;28;20479;-64
2023/03/27 07:00:24;;;;;;;5.25;2.00;;;2.90;76.10;;;;;;5040930;28;20615;-64
2023/03/27 07:02:55;;;;;;;7.80;2.75;;;2.90;76.80;;;;;;5038133;28;20209;-63
2023/03/27 07:05:22;;;;;;;6.72;2.20;;;3.00;75.00;;;;;;5038847;28;20197;-68
2023/03/27 07:07:49;;;;;;;10.13;2.47;;;3.00;73.50;;;;;;5042627;28;20250;-70
2023/03/27 07:10:16;;;;;;;7.22;2.08;;;2.90;75.00;;;;;;5039874;28;20207;-69
2023/03/27 07:12:46;;;;;;;6.07;1.92;;;3.00;73.90;;;;;;5042540;28;20209;-68
2023/03/27 07:15:13;;;;;;;10.55;2.50;;;3.00;74.00;;;;;;5039564;28;20221;-68
2023/03/27 07:17:41;;;;;;;6.10;2.10;;;3.00;75.00;;;;;;5041947;28;20742;-70
2023/03/27 07:20:10;;;;;;;5.55;2.17;;;3.00;73.80;;;;;;5039929;28;20698;-70
2023/03/27 07:22:37;;;;;;;4.55;2.08;;;3.00;73.30;;;;;;5039693;28;20288;-68
2023/03/27 07:25:05;;;;;;;7.88;1.80;;;3.00;73.20;;;;;;5041604;28;20572;-70
2023/03/27 07:27:32;;;;;;;5.80;1.90;;;3.10;71.40;;;;;;5040985;28;20761;-69
2023/03/27 07:30:00;;;;;;;3.90;1.88;;;3.20;73.70;;;;;;5041096;28;20224;-70
2023/03/27 07:32:28;;;;;;;6.93;2.72;;;3.40;72.70;;;;;;5039882;28;20202;-68
2023/03/27 07:34:55;;;;;;;10.95;2.55;;;3.50;70.10;;;;;;5040163;28;20776;-69
2023/03/27 07:37:22;;;;;;;5.57;2.13;;;3.60;67.60;;;;;;5041512;28;20203;-68
2023/03/27 07:39:49;;;;;;;7.97;1.95;;;3.70;67.90;;;;;;5039875;28;20194;-68
2023/03/27 07:42:16;;;;;;;8.75;2.00;;;3.60;65.60;;;;;;5041124;28;20214;-68
2023/03/27 07:44:42;;;;;;;13.82;2.50;;;3.70;68.20;;;;;;5038691;28;20207;-69
2023/03/27 07:47:11;;;;;;;3.83;1.80;;;3.70;69.30;;;;;;5041106;28;20657;-69
2023/03/27 07:49:38;;;;;;;3.92;2.35;;;3.60;66.50;;;;;;5038353;28;20204;-69
2023/03/27 07:52:05;;;;;;;11.35;2.38;;;3.50;67.90;;;;;;5036559;28;20203;-69
2023/03/27 07:54:32;;;;;;;7.95;2.00;;;3.60;67.60;;;;;;5038386;28;20237;-69
2023/03/27 07:56:59;;;;;;;7.30;2.22;;;3.70;67.90;;;;;;5038422;28;20240;-70
2023/03/27 07:59:26;;;;;;;12.32;3.65;;;3.70;68.20;;;;;;5042764;28;20949;-69
2023/03/27 08:01:54;;;;;;;9.18;3.85;;;3.80;66.50;;;;;;5044576;28;20289;-69
2023/03/27 08:04:22;;;;;;;6.57;2.13;;;3.70;65.70;;;;;;5042106;28;20759;-71
2023/03/27 08:06:53;;;;;;;7.90;2.17;;;3.70;66.30;;;;;;5043294;28;20202;-69
2023/03/27 08:09:20;;;;;;;4.95;1.55;;;3.70;67.50;;;;;;5044862;28;20281;-70
2023/03/27 08:11:49;;;;;;;7.35;1.70;;;3.70;65.50;;;;;;5045005;28;20199;-69
2023/03/27 08:14:16;;;;;;;9.90;2.45;;;3.80;66.40;;;;;;5046885;28;20218;-70
2023/03/27 08:16:43;;;;;;;5.63;1.60;;;3.90;67.80;;;;;;5048815;28;20588;-69
2023/03/27 08:19:10;;;;;;;5.22;2.05;;;4.10;64.20;;;;;;5046858;28;20297;-70
2023/03/27 08:21:38;;;;;;;9.95;2.05;;;4.10;62.90;;;;;;5044019;28;20207;-67
2023/03/27 08:24:06;;;;;;;3.20;1.70;;;4.20;63.70;;;;;;5045751;28;20198;-69
2023/03/27 08:26:33;;;;;;;8.60;1.75;;;4.40;64.20;;;;;;5046356;28;21593;-69
2023/03/27 08:29:00;;;;;;;6.30;1.60;;;4.40;62.30;;;;;;5047531;28;20239;-70
2023/03/27 08:31:29;;;;;;;6.13;1.70;;;4.50;62.30;;;;;;5042486;28;20296;-68
2023/03/27 08:33:56;;;;;;;5.72;1.95;;;4.50;62.60;;;;;;5040542;28;20511;-70
2023/03/27 08:36:23;;;;;;;8.50;1.87;;;4.60;64.20;;;;;;5046838;28;20213;-69
2023/03/27 08:38:53;;;;;;;5.67;1.50;;;4.70;60.50;;;;;;5043339;28;20452;-69
2023/03/27 08:41:26;;;;;;;5.57;2.00;;;4.70;59.30;;;;;;5045085;28;20536;-70
2023/03/27 08:43:56;;;;;;;5.77;1.50;;;4.70;59.60;;;;;;5042866;28;20451;-69
2023/03/27 08:46:27;;;;;;;8.20;2.00;;;4.70;58.80;;;;;;5043155;28;20481;-69
2023/03/27 08:48:58;;;;;;;4.53;1.90;;;4.70;58.20;;;;;;5042275;28;20479;-68
2023/03/27 08:51:27;;;;;;;5.17;1.93;;;4.60;59.20;;;;;;5045990;28;21015;-69
2023/03/27 08:53:59;;;;;;;7.25;1.92;;;4.70;60.60;;;;;;5043616;28;20462;-69
2023/03/27 08:56:27;;;;;;;6.07;2.50;;;4.90;61.10;;;;;;5042046;28;20229;-69
2023/03/27 08:58:54;;;;;;;4.40;1.60;;;4.90;58.90;;;;;;5047801;28;20461;-70
2023/03/27 09:01:29;;;;;;;4.43;2.07;;;4.90;58.70;;;;;;5047234;28;20447;-69
2023/03/27 09:04:03;;;;;;;5.57;1.40;;;4.90;56.80;;;;;;5043606;28;20459;-69
2023/03/27 09:06:37;;;;;;;3.65;1.50;;;5.00;57.40;;;;;;5046786;28;20269;-69
2023/03/27 09:09:11;;;;;;;7.47;1.50;;;5.00;56.20;;;;;;5046749;28;20239;-69
2023/03/27 09:11:54;;;;;;;5.93;1.50;;;5.00;57.50;;;;;;5045732;28;20446;-69
2023/03/27 09:14:29;;;;;;;5.90;1.60;;;5.20;58.10;;;;;;5045121;28;20822;-70
2023/03/27 09:17:00;;;;;;;5.50;1.43;;;5.80;57.70;;;;;;5042100;28;20917;-69
2023/03/27 09:19:36;;;;;;;9.10;1.83;;;5.90;55.70;;;;;;5044775;28;20475;-69
2023/03/27 09:22:07;;;;;;;5.03;1.53;;;5.50;54.90;;;;;;5041641;28;20459;-69
2023/03/27 09:24:41;;;;;;;3.83;1.30;;;5.50;55.00;;;;;;5044485;28;20539;-69
2023/03/27 09:27:17;;;;;;;4.90;1.80;;;5.80;54.00;;;;;;5046017;28;20436;-69
2023/03/27 09:29:45;;;;;;;4.60;1.70;;;6.20;53.80;;;;;;5046775;28;20451;-69
2023/03/27 09:32:15;;;;;;;6.47;1.43;;;6.50;54.70;;;;;;5044081;28;20530;-69
2023/03/27 09:34:43;;;;;;;5.70;1.80;;;6.60;52.70;;;;;;5042959;28;20452;-68
2023/03/27 09:37:12;;;;;;;7.87;1.40;;;6.50;52.70;;;;;;5045367;28;20480;-69
2023/03/27 09:39:45;;;;;;;9.60;1.80;;;6.40;52.30;;;;;;5044768;28;20934;-69
2023/03/27 09:42:18;;;;;;;5.30;1.40;;;6.50;52.90;;;;;;5046774;28;20984;-70
2023/03/27 09:44:49;;;;;;;3.80;1.67;;;6.60;52.30;;;;;;5044857;28;20451;-69
2023/03/27 09:47:21;;;;;;;6.73;2.30;;;6.80;53.90;;;;;;5043534;28;20453;-69
2023/03/27 09:49:51;;;;;;;10.40;2.20;;;6.90;52.70;;;;;;5039370;28;20540;-69
2023/03/27 09:52:35;;;;;;;8.67;2.00;;;6.60;51.30;;;;;;5042511;28;20514;-69
2023/03/27 09:55:03;;;;;;;2.20;1.50;;;6.00;53.00;;;;;;5046091;28;20467;-68
2023/03/27 09:57:32;;;;;;;6.23;1.90;;;6.20;52.50;;;;;;5039082;28;20506;-67
2023/03/27 10:00:08;;;;;;;5.90;2.00;;;6.90;52.20;;;;;;5044925;28;20862;-69
2023/03/27 10:02:36;;;;;;;5.60;1.57;;;6.60;50.60;;;;;;5040196;28;20444;-68
2023/03/27 10:05:10;;;;;;;4.27;1.40;;;6.30;50.90;;;;;;5045554;28;20462;-68
2023/03/27 10:07:38;;;;;;;3.43;1.00;;;6.50;50.60;;;;;;5046530;28;20459;-70
2023/03/27 10:10:10;;;;;;;4.40;1.37;;;7.00;49.10;;;;;;5047099;28;20441;-69
2023/03/27 10:12:38;;;;;;;5.83;1.70;;;7.70;52.30;;;;;;5045776;28;20453;-71
2023/03/27 10:15:23;;;;;;;4.53;1.20;;;7.70;49.70;;;;;;5042792;28;20456;-67
2023/03/27 10:17:50;;;;;;;3.50;1.20;;;7.30;49.70;;;;;;5043191;28;20860;-69
2023/03/27 10:20:23;;;;;;;8.30;1.80;;;6.40;48.70;;;;;;5043898;28;20440;-69
2023/03/27 10:22:55;;;;;;;7.60;2.30;;;5.90;50.20;;;;;;5047429;28;20813;-69
2023/03/27 10:25:30;;;;;;;5.07;2.10;;;6.30;51.50;;;;;;5042241;28;20452;-71
2023/03/27 10:28:09;;;;;;;3.40;1.50;;;6.90;49.40;;;;;;5041259;28;20473;-69
2023/03/27 10:30:39;;;;;;;4.07;1.60;;;7.50;47.40;;;;;;5043400;28;20497;-69
2023/03/27 10:33:07;;;;;;;3.17;1.43;;;7.70;47.10;;;;;;5043303;28;20508;-70
2023/03/27 10:35:36;;;;;;;2.10;1.37;;;7.40;45.40;;;;;;5040536;28;20984;-72
2023/03/27 10:38:06;;;;;;;4.50;1.80;;;7.80;48.70;;;;;;5043480;28;22021;-70
2023/03/27 10:40:37;;;;;;;3.40;1.40;;;8.30;48.50;;;;;;5045387;28;20453;-70
2023/03/27 10:43:09;;;;;;;5.13;1.50;;;8.60;45.50;;;;;;5043248;28;20831;-69
2023/03/27 10:45:46;;;;;;;4.03;1.10;;;8.20;42.80;;;;;;5043316;28;20446;-72
2023/03/27 10:48:26;;;;;;;9.60;1.50;;;8.00;40.90;;;;;;5043281;28;20466;-70
2023/03/27 10:50:57;;;;;;;10.13;2.07;;;8.10;43.30;;;;;;5046631;28;20443;-70
2023/03/27 10:53:35;;;;;;;6.07;1.40;;;8.50;43.30;;;;;;5047585;28;20443;-70
2023/03/27 10:56:11;;;;;;;3.73;1.33;;;8.90;43.50;;;;;;5045198;28;20446;-70
2023/03/27 10:58:44;;;;;;;8.53;1.90;;;9.60;43.00;;;;;;5043926;28;20467;-70
2023/03/27 11:01:18;;;;;;;3.00;1.27;;;9.90;44.80;;;;;;5041415;28;20442;-70
2023/03/27 11:03:50;;;;;;;4.23;1.50;;;9.70;43.30;;;;;;5042907;28;20448;-70
2023/03/27 11:06:19;;;;;;;3.73;1.63;;;8.60;44.20;;;;;;5041216;28;20440;-70
2023/03/27 11:08:54;;;;;;;7.00;1.70;;;7.80;45.20;;;;;;5041256;28;20473;-71
2023/03/27 11:11:27;;;;;;;4.27;1.10;;;8.20;43.80;;;;;;5043408;28;20448;-72
2023/03/27 11:14:01;;;;;;;5.30;1.40;;;8.50;42.60;;;;;;5041338;28;21057;-70
2023/03/27 11:16:34;;;;;;;5.10;1.70;;;8.70;42.20;;;;;;5043768;28;20573;-70
2023/03/27 11:19:15;;;;;;;3.60;1.43;;;9.10;42.50;;;;;;5044820;28;20464;-71
2023/03/27 11:21:46;;;;;;;2.73;1.40;;;8.80;43.10;;;;;;5043722;28;20487;-70
2023/03/27 11:24:21;;;;;;;3.63;1.50;;;9.00;44.20;;;;;;5043201;28;20467;-71
2023/03/27 11:26:56;;;;;;;4.83;2.03;;;8.20;44.90;;;;;;5042304;28;20437;-70
2023/03/27 11:29:28;;;;;;;4.63;1.30;;;8.00;45.10;;;;;;5042607;28;20462;-70
2023/03/27 11:32:01;;;;;;;2.77;1.27;;;8.80;42.40;;;;;;5044008;28;20445;-69
2023/03/27 11:34:35;;;;;;;4.53;1.23;;;8.80;42.20;;;;;;5043965;28;20461;-70
2023/03/27 11:37:05;;;;;;;6.10;1.80;;;8.00;43.40;;;;;;5045221;28;20564;-69
2023/03/27 11:39:38;;;;;;;5.70;1.90;;;7.90;44.10;;;;;;5047740;28;20462;-71
2023/03/27 11:42:15;;;;;;;2.40;1.13;;;8.60;43.50;;;;;;5045698;28;20459;-70
2023/03/27 11:44:42;;;;;;;3.70;1.63;;;8.20;42.40;;;;;;5046648;28;20450;-70
2023/03/27 11:47:27;;;;;;;6.20;1.60;;;7.80;45.80;;;;;;5044605;28;20940;-70
2023/03/27 11:50:11;;;;;;;4.47;1.70;;;7.70;47.20;;;;;;5046464;28;20450;-69
2023/03/27 11:52:51;;;;;;;3.83;1.40;;;8.50;45.80;;;;;;5042141;28;20973;-72
2023/03/27 11:55:30;;;;;;;2.87;1.20;;;9.50;43.70;;;;;;5048827;28;20569;-70
2023/03/27 11:58:14;;;;;;;3.27;1.40;;;10.30;42.00;;;;;;5048995;28;20576;-70
2023/03/27 12:00:51;;;;;;;1.53;1.20;;;9.90;39.80;;;;;;5047492;28;20447;-69
2023/03/27 12:03:43;;;;;;;2.10;0.90;;;9.90;39.70;;;;;;5046206;28;20452;-70
2023/03/27 12:06:19;;;;;;;2.50;1.00;;;10.40;37.70;;;;;;5044933;28;20448;-72
2023/03/27 12:09:10;;;;;;;1.83;0.77;;;11.40;37.60;;;;;;5044926;28;20478;-70
2023/03/27 12:11:41;;;;;;;2.60;1.20;;;12.10;34.50;;;;;;5040495;28;20461;-71
2023/03/27 12:14:31;;;;;;;4.17;1.20;;;11.10;34.50;;;;;;5050025;28;20445;-70
2023/03/27 12:17:27;;;;;;;1.53;1.07;;;10.10;37.60;;;;;;5046399;28;20491;-69
2023/03/27 12:20:40;;;;;;;5.30;1.27;;;9.10;41.70;;;;;;5030092;28;20980;-69
2023/03/27 12:23:25;;;;;;;3.20;1.30;;;8.70;40.40;;;;;;4998360;28;20442;-71
2023/03/27 12:26:22;;;;;;;4.00;1.13;;;9.00;42.80;;;;;;5039632;28;20449;-68
2023/03/27 12:29:00;;;;;;;2.83;1.20;;;8.80;42.60;;;;;;5044116;28;20489;-68
2023/03/27 12:31:42;;;;;;;3.97;1.33;;;8.90;44.60;;;;;;5036972;28;20454;-69
2023/03/27 12:34:20;;;;;;;1.90;0.87;;;9.50;43.20;;;;;;5035994;28;20971;-69
2023/03/27 12:36:48;;;;;;;6.00;1.70;;;10.20;40.60;;;;;;5046713;28;20479;-69
2023/03/27 12:39:19;;;;;;;3.60;1.20;;;10.90;40.30;;;;;;5047259;28;20595;-68
2023/03/27 12:41:47;;;;;;;2.53;0.87;;;11.10;37.30;;;;;;5042167;28;20456;-68
2023/03/27 12:44:17;;;;;;;3.20;1.03;;;11.70;37.70;;;;;;5045160;28;20448;-70
2023/03/27 12:47:04;;;;;;;4.67;1.10;;;11.80;35.90;;;;;;5047163;28;21144;-71
2023/03/27 12:49:43;;;;;;;2.77;0.97;;;11.40;37.20;;;;;;5040230;28;20469;-70
2023/03/27 12:52:10;;;;;;;2.90;0.80;;;10.50;38.30;;;;;;5029366;28;20471;-70
2023/03/27 12:54:38;;;;;;;5.03;1.50;;;9.90;41.40;;;;;;5027583;28;20445;-69
2023/03/27 12:57:07;;;;;;;5.13;1.13;;;9.90;43.10;;;;;;5027025;28;20570;-69
2023/03/27 12:59:38;;;;;;;2.17;1.40;;;10.00;42.60;;;;;;5026988;28;20457;-69
2023/03/27 13:03:03;;;;;;;7.77;1.20;;;9.50;44.10;;;;;;5029087;28;20446;-68
2023/03/27 13:06:02;;;;;;;3.47;1.10;;;8.90;44.40;;;;;;5011494;28;20481;-69
2023/03/27 13:08:41;;;;;;;1.77;1.30;;;8.30;46.00;;;;;;5028427;28;20455;-68
2023/03/27 13:11:18;;;;;;;5.70;1.17;;;8.20;46.70;;;;;;5032411;28;20464;-68
2023/03/27 13:14:14;;;;;;;4.23;0.93;;;8.00;46.70;;;;;;5029144;28;20447;-68
2023/03/27 13:17:10;;;;;;;7.83;1.40;;;7.80;46.60;;;;;;5028885;28;20483;-69